sensor_id;sensor_type;location;lat;lon;timestamp;pressure;altitude;pressure_sealevel;temperature;humidity
54389;BME280;40975;50.390;8.640;2023-03-09T00:00:35;96422.06;;;3.94;100.00
54389;BME280;40975;50.390;8.640;2023-03-09T00:03:01;96430.22;;;3.99;100.00
54389;BME280;40975;50.390;8.640;2023-03-09T00:05:26;96430.22;;;3.99;100.00
54389;BME280;40975;50.390;8.640;2023-03-09T00:07:53;96425.78;;;4.00;100.00
54389;BME280;40975;50.390;8.640;2023-03-09T00:10:19;96426.78;;;3.99;100.00
54389;BME280;40975;50.390;8.640;2023-03-09T00:12:44;96418.41;;;4.03;100.00
54389;BME280;40975;50.390;8.640;2023-03-09T00:15:10;96418.03;;;4.07;100.00
54389;BME280;40975;50.390;8.640;2023-03-09T00:17:36;96420.81;;;4.13;100.00
54389;BME280;40975;50.390;8.640;2023-03-09T00:20:03;96423.09;;;4.16;100.00
54389;BME280;40975;50.390;8.640;2023-03-09T00:22:42;96422.53;;;4.29;100.00
54389;BME280;40975;50.390;8.640;2023-03-09T00:25:08;96420.19;;;4.34;100.00
54389;BME280;40975;50.390;8.640;2023-03-09T00:27:38;96425.41;;;4.43;100.00
54389;BME280;40975;50.390;8.640;2023-03-09T00:30:04;96420.78;;;4.45;100.00
54389;BME280;40975;50.390;8.640;2023-03-09T00:32:31;96425.22;;;4.44;100.00
54389;BME280;40975;50.390;8.640;2023-03-09T00:34:57;96420.63;;;4.46;100.00
54389;BME280;40975;50.390;8.640;2023-03-09T00:37:22;96420.63;;;4.46;100.00
54389;BME280;40975;50.390;8.640;2023-03-09T00:39:47;96413.06;;;4.43;100.00
54389;BME280;40975;50.390;8.640;2023-03-09T00:42:12;96421.66;;;4.37;100.00
54389;BME280;40975;50.390;8.640;2023-03-09T00:44:39;96414.59;;;4.38;100.00
54389;BME280;40975;50.390;8.640;2023-03-09T00:47:05;96422.47;;;4.38;100.00
54389;BME280;40975;50.390;8.640;2023-03-09T00:49:30;96411.81;;;4.39;100.00
54389;BME280;40975;50.390;8.640;2023-03-09T00:51:56;96408.34;;;4.39;100.00
54389;BME280;40975;50.390;8.640;2023-03-09T00:54:21;96414.25;;;4.41;100.00
54389;BME280;40975;50.390;8.640;2023-03-09T00:56:47;96414.25;;;4.41;100.00
54389;BME280;40975;50.390;8.640;2023-03-09T00:59:12;96415.25;;;4.40;100.00
54389;BME280;40975;50.390;8.640;2023-03-09T01:01:37;96407.19;;;4.41;100.00
54389;BME280;40975;50.390;8.640;2023-03-09T01:04:05;96411.44;;;4.42;100.00
54389;BME280;40975;50.390;8.640;2023-03-09T01:06:30;96408.00;;;4.42;100.00
54389;BME280;40975;50.390;8.640;2023-03-09T01:08:56;96415.06;;;4.41;100.00
54389;BME280;40975;50.390;8.640;2023-03-09T01:11:21;96419.03;;;4.37;100.00
54389;BME280;40975;50.390;8.640;2023-03-09T01:13:49;96424.09;;;4.39;100.00
54389;BME280;40975;50.390;8.640;2023-03-09T01:16:14;96423.81;;;4.33;100.00
54389;BME280;40975;50.390;8.640;2023-03-09T01:18:40;96426.09;;;4.36;100.00
54389;BME280;40975;50.390;8.640;2023-03-09T01:21:06;96436.78;;;4.35;100.00
54389;BME280;40975;50.390;8.640;2023-03-09T01:23:33;96431.81;;;4.40;100.00
54389;BME280;40975;50.390;8.640;2023-03-09T01:26:00;96435.91;;;4.43;100.00
54389;BME280;40975;50.390;8.640;2023-03-09T01:28:28;96428.66;;;4.45;100.00
54389;BME280;40975;50.390;8.640;2023-03-09T01:30:53;96428.66;;;4.45;100.00
54389;BME280;40975;50.390;8.640;2023-03-09T01:33:18;96432.41;;;4.50;100.00
54389;BME280;40975;50.390;8.640;2023-03-09T01:35:44;96439.28;;;4.51;100.00
54389;BME280;40975;50.390;8.640;2023-03-09T01:38:09;96438.59;;;4.58;100.00
54389;BME280;40975;50.390;8.640;2023-03-09T01:40:35;96436.91;;;4.65;100.00
54389;BME280;40975;50.390;8.640;2023-03-09T01:43:23;96423.06;;;4.71;100.00
54389;BME280;40975;50.390;8.640;2023-03-09T01:48:50;96428.50;;;5.46;100.00
54389;BME280;40975;50.390;8.640;2023-03-09T01:51:21;96431.56;;;5.65;100.00
54389;BME280;40975;50.390;8.640;2023-03-09T01:53:47;96436.22;;;5.93;100.00
54389;BME280;40975;50.390;8.640;2023-03-09T01:56:17;96446.69;;;6.01;100.00
54389;BME280;40975;50.390;8.640;2023-03-09T01:58:43;96442.94;;;6.10;100.00
54389;BME280;40975;50.390;8.640;2023-03-09T02:01:13;96437.31;;;6.13;100.00
54389;BME280;40975;50.390;8.640;2023-03-09T02:03:42;96445.28;;;6.20;100.00
54389;BME280;40975;50.390;8.640;2023-03-09T02:06:16;96438.38;;;6.19;100.00
54389;BME280;40975;50.390;8.640;2023-03-09T02:08:53;96442.63;;;6.20;100.00
54389;BME280;40975;50.390;8.640;2023-03-09T02:11:20;96419.56;;;6.22;100.00
54389;BME280;40975;50.390;8.640;2023-03-09T02:13:48;96431.38;;;6.26;100.00
54389;BME280;40975;50.390;8.640;2023-03-09T02:16:16;96439.91;;;6.28;100.00
54389;BME280;40975;50.390;8.640;2023-03-09T02:18:41;96433.91;;;6.34;100.00
54389;BME280;40975;50.390;8.640;2023-03-09T02:24:44;96433.06;;;6.34;100.00
54389;BME280;40975;50.390;8.640;2023-03-09T02:27:26;96440.63;;;6.37;100.00
54389;BME280;40975;50.390;8.640;2023-03-09T02:29:54;96443.88;;;6.39;100.00
54389;BME280;40975;50.390;8.640;2023-03-09T02:32:20;96445.16;;;6.43;100.00
54389;BME280;40975;50.390;8.640;2023-03-09T02:34:45;96443.06;;;6.38;100.00
54389;BME280;40975;50.390;8.640;2023-03-09T02:39:57;96449.78;;;6.41;100.00
54389;BME280;40975;50.390;8.640;2023-03-09T02:42:25;96456.06;;;6.40;100.00
54389;BME280;40975;50.390;8.640;2023-03-09T02:44:53;96463.13;;;6.40;100.00
54389;BME280;40975;50.390;8.640;2023-03-09T02:47:21;96473.06;;;6.37;100.00
54389;BME280;40975;50.390;8.640;2023-03-09T02:49:50;96479.31;;;6.36;100.00
54389;BME280;40975;50.390;8.640;2023-03-09T02:52:16;96475.22;;;6.34;100.00
54389;BME280;40975;50.390;8.640;2023-03-09T02:54:42;96484.41;;;6.38;100.00
54389;BME280;40975;50.390;8.640;2023-03-09T02:57:08;96485.69;;;6.42;100.00
54389;BME280;40975;50.390;8.640;2023-03-09T02:59:33;96492.19;;;6.46;100.00
54389;BME280;40975;50.390;8.640;2023-03-09T03:01:59;96494.56;;;6.41;100.00
54389;BME280;40975;50.390;8.640;2023-03-09T03:04:24;96501.84;;;6.39;100.00
54389;BME280;40975;50.390;8.640;2023-03-09T03:06:52;96503.28;;;6.42;100.00
54389;BME280;40975;50.390;8.640;2023-03-09T03:09:18;96508.31;;;6.36;100.00
54389;BME280;40975;50.390;8.640;2023-03-09T03:11:43;96510.09;;;6.36;100.00
54389;BME280;40975;50.390;8.640;2023-03-09T03:14:09;96516.00;;;6.38;100.00
54389;BME280;40975;50.390;8.640;2023-03-09T03:16:34;96511.03;;;6.28;100.00
54389;BME280;40975;50.390;8.640;2023-03-09T03:19:00;96535.34;;;6.45;100.00
54389;BME280;40975;50.390;8.640;2023-03-09T03:21:29;96538.44;;;6.34;100.00
54389;BME280;40975;50.390;8.640;2023-03-09T03:23:55;96545.09;;;6.30;100.00
54389;BME280;40975;50.390;8.640;2023-03-09T03:26:21;96563.63;;;6.36;100.00
54389;BME280;40975;50.390;8.640;2023-03-09T03:28:50;96569.16;;;6.42;100.00
54389;BME280;40975;50.390;8.640;2023-03-09T03:31:21;96571.88;;;6.48;100.00
54389;BME280;40975;50.390;8.640;2023-03-09T03:33:47;96587.50;;;6.50;100.00
54389;BME280;40975;50.390;8.640;2023-03-09T03:36:12;96588.97;;;6.52;100.00
54389;BME280;40975;50.390;8.640;2023-03-09T03:38:41;96596.47;;;6.56;100.00
54389;BME280;40975;50.390;8.640;2023-03-09T03:41:06;96600.31;;;6.53;100.00
54389;BME280;40975;50.390;8.640;2023-03-09T03:43:31;96611.75;;;6.60;100.00
54389;BME280;40975;50.390;8.640;2023-03-09T03:45:57;96617.41;;;6.57;100.00
54389;BME280;40975;50.390;8.640;2023-03-09T03:48:23;96638.56;;;6.64;100.00
54389;BME280;40975;50.390;8.640;2023-03-09T03:50:49;96640.19;;;6.65;100.00
54389;BME280;40975;50.390;8.640;2023-03-09T03:53:15;96648.75;;;6.67;100.00
54389;BME280;40975;50.390;8.640;2023-03-09T03:55:40;96654.19;;;6.65;100.00
54389;BME280;40975;50.390;8.640;2023-03-09T03:58:05;96669.91;;;6.59;100.00
54389;BME280;40975;50.390;8.640;2023-03-09T04:00:32;96663.84;;;6.58;100.00
54389;BME280;40975;50.390;8.640;2023-03-09T04:03:01;96672.28;;;6.53;100.00
54389;BME280;40975;50.390;8.640;2023-03-09T04:05:39;96680.25;;;6.45;100.00
54389;BME280;40975;50.390;8.640;2023-03-09T04:08:05;96680.25;;;6.45;100.00
54389;BME280;40975;50.390;8.640;2023-03-09T04:10:30;96686.91;;;6.41;100.00
54389;BME280;40975;50.390;8.640;2023-03-09T04:12:55;96698.16;;;6.50;100.00
54389;BME280;40975;50.390;8.640;2023-03-09T04:15:22;96701.78;;;6.49;100.00
54389;BME280;40975;50.390;8.640;2023-03-09T04:17:49;96718.34;;;6.43;100.00
54389;BME280;40975;50.390;8.640;2023-03-09T04:20:16;96718.34;;;6.43;100.00
54389;BME280;40975;50.390;8.640;2023-03-09T04:22:43;96708.91;;;6.48;100.00
54389;BME280;40975;50.390;8.640;2023-03-09T04:25:10;96726.53;;;6.48;100.00
54389;BME280;40975;50.390;8.640;2023-03-09T04:27:35;96735.97;;;6.42;100.00
54389;BME280;40975;50.390;8.640;2023-03-09T04:30:11;96734.25;;;6.49;100.00
54389;BME280;40975;50.390;8.640;2023-03-09T04:32:36;96739.41;;;6.43;100.00
54389;BME280;40975;50.390;8.640;2023-03-09T04:35:06;96749.03;;;6.35;100.00
54389;BME280;40975;50.390;8.640;2023-03-09T04:37:33;96755.63;;;6.31;100.00
54389;BME280;40975;50.390;8.640;2023-03-09T04:39:59;96759.47;;;6.29;100.00
54389;BME280;40975;50.390;8.640;2023-03-09T04:42:24;96768.53;;;6.26;100.00
54389;BME280;40975;50.390;8.640;2023-03-09T04:44:50;96776.25;;;6.28;100.00
54389;BME280;40975;50.390;8.640;2023-03-09T04:47:15;96779.06;;;6.26;100.00
54389;BME280;40975;50.390;8.640;2023-03-09T04:49:41;96788.63;;;6.27;100.00
54389;BME280;40975;50.390;8.640;2023-03-09T04:52:07;96786.97;;;6.26;100.00
54389;BME280;40975;50.390;8.640;2023-03-09T04:54:33;96788.16;;;6.24;100.00
54389;BME280;40975;50.390;8.640;2023-03-09T04:56:58;96793.88;;;6.27;100.00
54389;BME280;40975;50.390;8.640;2023-03-09T04:59:25;96793.06;;;6.27;100.00
54389;BME280;40975;50.390;8.640;2023-03-09T05:01:52;96787.72;;;6.35;100.00
54389;BME280;40975;50.390;8.640;2023-03-09T05:04:22;96798.75;;;6.38;100.00
54389;BME280;40975;50.390;8.640;2023-03-09T05:06:52;96798.56;;;6.40;100.00
54389;BME280;40975;50.390;8.640;2023-03-09T05:09:18;96805.28;;;6.43;100.00
54389;BME280;40975;50.390;8.640;2023-03-09T05:11:45;96825.19;;;6.45;100.00
54389;BME280;40975;50.390;8.640;2023-03-09T05:14:12;96822.72;;;6.44;100.00
54389;BME280;40975;50.390;8.640;2023-03-09T05:16:37;96827.81;;;6.45;100.00
54389;BME280;40975;50.390;8.640;2023-03-09T05:19:04;96831.28;;;6.46;100.00
54389;BME280;40975;50.390;8.640;2023-03-09T05:21:35;96832.63;;;6.42;100.00
54389;BME280;40975;50.390;8.640;2023-03-09T05:24:04;96841.94;;;6.52;100.00
54389;BME280;40975;50.390;8.640;2023-03-09T05:26:30;96847.50;;;6.58;100.00
54389;BME280;40975;50.390;8.640;2023-03-09T05:28:56;96854.75;;;6.56;100.00
54389;BME280;40975;50.390;8.640;2023-03-09T05:31:21;96857.56;;;6.54;100.00
54389;BME280;40975;50.390;8.640;2023-03-09T05:33:47;96863.66;;;6.54;100.00
54389;BME280;40975;50.390;8.640;2023-03-09T05:36:17;96869.56;;;6.57;100.00
54389;BME280;40975;50.390;8.640;2023-03-09T05:38:44;96862.50;;;6.57;100.00
54389;BME280;40975;50.390;8.640;2023-03-09T05:41:11;96871.22;;;6.58;100.00
54389;BME280;40975;50.390;8.640;2023-03-09T05:43:37;96865.94;;;6.58;100.00
54389;BME280;40975;50.390;8.640;2023-03-09T05:46:12;96872.72;;;6.52;100.00
54389;BME280;40975;50.390;8.640;2023-03-09T05:48:39;96881.94;;;6.56;100.00
54389;BME280;40975;50.390;8.640;2023-03-09T05:51:05;96885.09;;;6.51;100.00
54389;BME280;40975;50.390;8.640;2023-03-09T05:53:33;96882.94;;;6.55;100.00
54389;BME280;40975;50.390;8.640;2023-03-09T05:56:00;96903.81;;;6.57;100.00
54389;BME280;40975;50.390;8.640;2023-03-09T05:58:26;96904.00;;;6.55;100.00
54389;BME280;40975;50.390;8.640;2023-03-09T06:00:52;96907.31;;;6.57;100.00
54389;BME280;40975;50.390;8.640;2023-03-09T06:03:19;96899.66;;;6.62;100.00
54389;BME280;40975;50.390;8.640;2023-03-09T06:06:04;96913.84;;;6.61;100.00
54389;BME280;40975;50.390;8.640;2023-03-09T06:08:33;96912.38;;;6.59;100.00
54389;BME280;40975;50.390;8.640;2023-03-09T06:11:05;96909.56;;;6.60;100.00
54389;BME280;40975;50.390;8.640;2023-03-09T06:13:31;96914.50;;;6.63;100.00
54389;BME280;40975;50.390;8.640;2023-03-09T06:16:02;96919.75;;;6.63;100.00
54389;BME280;40975;50.390;8.640;2023-03-09T06:18:27;96924.84;;;6.65;100.00
54389;BME280;40975;50.390;8.640;2023-03-09T06:20:54;96921.41;;;6.64;100.00
54389;BME280;40975;50.390;8.640;2023-03-09T06:23:19;96917.78;;;6.65;100.00
54389;BME280;40975;50.390;8.640;2023-03-09T06:25:45;96927.97;;;6.68;100.00
54389;BME280;40975;50.390;8.640;2023-03-09T06:28:11;96923.53;;;6.69;100.00
54389;BME280;40975;50.390;8.640;2023-03-09T06:30:38;96926.97;;;6.69;100.00
54389;BME280;40975;50.390;8.640;2023-03-09T06:33:06;96939.00;;;6.72;100.00
54389;BME280;40975;50.390;8.640;2023-03-09T06:35:35;96936.97;;;6.74;100.00
54389;BME280;40975;50.390;8.640;2023-03-09T06:38:01;96953.28;;;6.78;100.00
54389;BME280;40975;50.390;8.640;2023-03-09T06:40:28;96937.41;;;6.86;100.00
54389;BME280;40975;50.390;8.640;2023-03-09T06:42:53;96952.50;;;6.92;100.00
54389;BME280;40975;50.390;8.640;2023-03-09T06:45:18;96940.78;;;6.95;100.00
54389;BME280;40975;50.390;8.640;2023-03-09T06:47:46;96946.72;;;6.97;100.00
54389;BME280;40975;50.390;8.640;2023-03-09T06:50:12;96947.00;;;7.02;100.00
54389;BME280;40975;50.390;8.640;2023-03-09T06:52:42;96946.38;;;7.00;100.00
54389;BME280;40975;50.390;8.640;2023-03-09T06:55:08;96962.00;;;7.02;100.00
54389;BME280;40975;50.390;8.640;2023-03-09T06:57:36;96962.66;;;7.04;100.00
54389;BME280;40975;50.390;8.640;2023-03-09T07:00:03;96977.13;;;7.08;100.00
54389;BME280;40975;50.390;8.640;2023-03-09T07:02:30;96979.28;;;7.04;100.00
54389;BME280;40975;50.390;8.640;2023-03-09T07:04:56;96970.56;;;7.04;100.00
54389;BME280;40975;50.390;8.640;2023-03-09T07:07:23;96971.38;;;7.04;100.00
54389;BME280;40975;50.390;8.640;2023-03-09T07:09:49;96977.13;;;7.08;100.00
54389;BME280;40975;50.390;8.640;2023-03-09T07:12:14;96990.47;;;7.06;100.00
54389;BME280;40975;50.390;8.640;2023-03-09T07:14:39;96993.13;;;7.06;100.00
54389;BME280;40975;50.390;8.640;2023-03-09T07:17:05;96989.81;;;7.04;100.00
54389;BME280;40975;50.390;8.640;2023-03-09T07:19:30;96987.19;;;7.04;100.00
54389;BME280;40975;50.390;8.640;2023-03-09T07:21:55;97000.22;;;7.06;100.00
54389;BME280;40975;50.390;8.640;2023-03-09T07:24:21;97008.78;;;7.08;100.00
54389;BME280;40975;50.390;8.640;2023-03-09T07:26:48;97010.25;;;7.10;100.00
54389;BME280;40975;50.390;8.640;2023-03-09T07:29:13;97018.44;;;7.15;100.00
54389;BME280;40975;50.390;8.640;2023-03-09T07:31:39;97018.97;;;7.11;100.00
54389;BME280;40975;50.390;8.640;2023-03-09T07:34:05;97022.56;;;7.18;100.00
54389;BME280;40975;50.390;8.640;2023-03-09T07:36:31;97031.22;;;7.27;100.00
54389;BME280;40975;50.390;8.640;2023-03-09T07:38:57;97028.88;;;7.32;100.00
54389;BME280;40975;50.390;8.640;2023-03-09T07:41:22;97038.38;;;7.41;100.00
54389;BME280;40975;50.390;8.640;2023-03-09T07:43:47;97023.47;;;7.49;100.00
54389;BME280;40975;50.390;8.640;2023-03-09T07:46:24;97030.50;;;7.56;100.00
54389;BME280;40975;50.390;8.640;2023-03-09T07:48:49;97036.81;;;7.70;100.00
54389;BME280;40975;50.390;8.640;2023-03-09T07:51:15;97053.13;;;7.89;100.00
54389;BME280;40975;50.390;8.640;2023-03-09T07:53:40;97049.13;;;7.93;100.00
54389;BME280;40975;50.390;8.640;2023-03-09T07:56:07;97056.78;;;8.03;100.00
54389;BME280;40975;50.390;8.640;2023-03-09T07:58:34;97058.16;;;8.14;100.00
54389;BME280;40975;50.390;8.640;2023-03-09T08:01:01;97055.00;;;8.18;100.00
54389;BME280;40975;50.390;8.640;2023-03-09T08:03:27;97068.56;;;8.15;100.00
54389;BME280;40975;50.390;8.640;2023-03-09T08:05:52;97064.81;;;8.24;100.00
54389;BME280;40975;50.390;8.640;2023-03-09T08:08:25;97062.38;;;8.23;100.00
54389;BME280;40975;50.390;8.640;2023-03-09T08:10:53;97076.03;;;8.27;100.00
54389;BME280;40975;50.390;8.640;2023-03-09T08:13:20;97080.31;;;8.28;100.00
54389;BME280;40975;50.390;8.640;2023-03-09T08:15:47;97072.56;;;8.41;100.00
54389;BME280;40975;50.390;8.640;2023-03-09T08:18:13;97075.19;;;8.41;100.00
54389;BME280;40975;50.390;8.640;2023-03-09T08:20:39;97078.69;;;8.42;100.00
54389;BME280;40975;50.390;8.640;2023-03-09T08:23:05;97086.41;;;8.43;100.00
54389;BME280;40975;50.390;8.640;2023-03-09T08:25:31;97089.69;;;8.45;100.00
54389;BME280;40975;50.390;8.640;2023-03-09T08:27:57;97094.00;;;8.46;100.00
54389;BME280;40975;50.390;8.640;2023-03-09T08:30:23;97092.03;;;8.48;100.00
54389;BME280;40975;50.390;8.640;2023-03-09T08:32:50;97101.41;;;8.51;100.00
54389;BME280;40975;50.390;8.640;2023-03-09T08:35:21;97099.47;;;8.60;100.00
54389;BME280;40975;50.390;8.640;2023-03-09T08:37:47;97117.06;;;8.67;100.00
54389;BME280;40975;50.390;8.640;2023-03-09T08:40:14;97111.53;;;8.99;100.00
54389;BME280;40975;50.390;8.640;2023-03-09T08:42:39;97115.22;;;9.20;100.00
54389;BME280;40975;50.390;8.640;2023-03-09T08:45:06;97111.34;;;9.15;100.00
54389;BME280;40975;50.390;8.640;2023-03-09T08:47:33;97123.72;;;9.15;100.00
54389;BME280;40975;50.390;8.640;2023-03-09T08:49:58;97126.72;;;9.27;100.00
54389;BME280;40975;50.390;8.640;2023-03-09T08:52:23;97129.16;;;9.65;100.00
54389;BME280;40975;50.390;8.640;2023-03-09T08:54:50;97133.22;;;9.46;100.00
54389;BME280;40975;50.390;8.640;2023-03-09T08:57:16;97141.66;;;9.34;100.00
54389;BME280;40975;50.390;8.640;2023-03-09T08:59:41;97148.94;;;9.11;100.00
54389;BME280;40975;50.390;8.640;2023-03-09T09:02:10;97144.94;;;9.00;100.00
54389;BME280;40975;50.390;8.640;2023-03-09T09:04:42;97157.06;;;9.09;100.00
54389;BME280;40975;50.390;8.640;2023-03-09T09:07:08;97157.59;;;9.05;100.00
54389;BME280;40975;50.390;8.640;2023-03-09T09:09:33;97161.72;;;9.07;100.00
54389;BME280;40975;50.390;8.640;2023-03-09T09:11:58;97161.09;;;9.05;100.00
54389;BME280;40975;50.390;8.640;2023-03-09T09:14:24;97166.38;;;9.05;100.00
54389;BME280;40975;50.390;8.640;2023-03-09T09:16:49;97169.03;;;8.90;100.00
54389;BME280;40975;50.390;8.640;2023-03-09T09:19:16;97170.50;;;8.78;100.00
54389;BME280;40975;50.390;8.640;2023-03-09T09:21:41;97173.44;;;8.83;100.00
54389;BME280;40975;50.390;8.640;2023-03-09T09:24:07;97171.16;;;8.80;100.00
54389;BME280;40975;50.390;8.640;2023-03-09T09:26:32;97179.97;;;8.72;100.00
54389;BME280;40975;50.390;8.640;2023-03-09T09:28:57;97184.25;;;8.58;100.00
54389;BME280;40975;50.390;8.640;2023-03-09T09:31:26;97192.00;;;8.60;100.00
54389;BME280;40975;50.390;8.640;2023-03-09T09:33:56;97192.00;;;8.60;100.00
54389;BME280;40975;50.390;8.640;2023-03-09T09:36:22;97192.41;;;8.71;100.00
54389;BME280;40975;50.390;8.640;2023-03-09T09:38:47;97192.50;;;8.78;100.00
54389;BME280;40975;50.390;8.640;2023-03-09T09:41:18;97187.28;;;8.85;100.00
54389;BME280;40975;50.390;8.640;2023-03-09T09:43:47;97200.03;;;8.81;100.00
54389;BME280;40975;50.390;8.640;2023-03-09T09:46:16;97198.84;;;8.99;100.00
54389;BME280;40975;50.390;8.640;2023-03-09T09:48:43;97215.09;;;9.11;100.00
54389;BME280;40975;50.390;8.640;2023-03-09T09:54:12;97220.94;;;9.21;100.00
54389;BME280;40975;50.390;8.640;2023-03-09T09:56:47;97216.28;;;9.60;100.00
54389;BME280;40975;50.390;8.640;2023-03-09T09:59:19;97215.06;;;9.77;100.00
54389;BME280;40975;50.390;8.640;2023-03-09T10:01:59;97208.50;;;9.95;100.00
54389;BME280;40975;50.390;8.640;2023-03-09T10:04:31;97212.66;;;9.83;100.00
54389;BME280;40975;50.390;8.640;2023-03-09T10:07:01;97213.59;;;9.75;100.00
54389;BME280;40975;50.390;8.640;2023-03-09T10:09:30;97221.47;;;9.68;100.00
54389;BME280;40975;50.390;8.640;2023-03-09T10:12:01;97224.88;;;9.84;100.00
54389;BME280;40975;50.390;8.640;2023-03-09T10:14:50;97234.69;;;9.83;100.00
54389;BME280;40975;50.390;8.640;2023-03-09T10:17:29;97238.13;;;9.84;100.00
54389;BME280;40975;50.390;8.640;2023-03-09T10:20:11;97243.72;;;9.74;100.00
54389;BME280;40975;50.390;8.640;2023-03-09T10:22:37;97241.66;;;9.91;100.00
54389;BME280;40975;50.390;8.640;2023-03-09T10:25:09;97243.63;;;9.82;100.00
54389;BME280;40975;50.390;8.640;2023-03-09T10:27:44;97248.28;;;9.80;100.00
54389;BME280;40975;50.390;8.640;2023-03-09T10:30:22;97242.31;;;9.93;100.00
54389;BME280;40975;50.390;8.640;2023-03-09T10:35:44;97236.63;;;9.96;100.00
54389;BME280;40975;50.390;8.640;2023-03-09T10:38:17;97256.78;;;10.12;100.00
54389;BME280;40975;50.390;8.640;2023-03-09T10:40:48;97257.59;;;10.13;100.00
54389;BME280;40975;50.390;8.640;2023-03-09T10:43:29;97260.75;;;10.45;100.00
54389;BME280;40975;50.390;8.640;2023-03-09T10:46:22;97255.94;;;10.55;100.00
54389;BME280;40975;50.390;8.640;2023-03-09T10:48:47;97276.09;;;10.49;100.00
54389;BME280;40975;50.390;8.640;2023-03-09T10:51:26;97275.66;;;10.46;100.00
54389;BME280;40975;50.390;8.640;2023-03-09T10:53:52;97274.44;;;10.26;100.00
54389;BME280;40975;50.390;8.640;2023-03-09T10:56:27;97287.50;;;10.50;100.00
54389;BME280;40975;50.390;8.640;2023-03-09T11:01:38;97297.25;;;10.42;100.00
54389;BME280;40975;50.390;8.640;2023-03-09T11:07:26;97306.69;;;10.30;100.00
54389;BME280;40975;50.390;8.640;2023-03-09T11:09:53;97309.59;;;10.35;100.00
54389;BME280;40975;50.390;8.640;2023-03-09T11:12:25;97315.84;;;10.27;100.00
54389;BME280;40975;50.390;8.640;2023-03-09T11:17:46;97317.75;;;10.55;100.00
54389;BME280;40975;50.390;8.640;2023-03-09T11:22:43;97320.34;;;10.49;100.00
54389;BME280;40975;50.390;8.640;2023-03-09T11:25:16;97332.88;;;10.55;100.00
54389;BME280;40975;50.390;8.640;2023-03-09T11:27:56;97339.63;;;10.57;100.00
54389;BME280;40975;50.390;8.640;2023-03-09T11:30:27;97339.75;;;10.71;100.00
54389;BME280;40975;50.390;8.640;2023-03-09T11:32:53;97338.59;;;10.80;100.00
54389;BME280;40975;50.390;8.640;2023-03-09T11:35:21;97336.22;;;10.92;100.00
54389;BME280;40975;50.390;8.640;2023-03-09T11:37:50;97332.31;;;11.16;100.00
54389;BME280;40975;50.390;8.640;2023-03-09T11:40:22;97351.66;;;11.74;100.00
54389;BME280;40975;50.390;8.640;2023-03-09T11:43:32;97335.31;;;11.77;100.00
54389;BME280;40975;50.390;8.640;2023-03-09T11:46:01;97352.88;;;11.71;100.00
54389;BME280;40975;50.390;8.640;2023-03-09T11:48:34;97351.50;;;11.89;100.00
54389;BME280;40975;50.390;8.640;2023-03-09T11:51:04;97344.97;;;11.49;100.00
54389;BME280;40975;50.390;8.640;2023-03-09T11:53:38;97333.88;;;11.81;100.00
54389;BME280;40975;50.390;8.640;2023-03-09T11:56:24;97339.84;;;12.65;100.00
54389;BME280;40975;50.390;8.640;2023-03-09T11:58:57;97334.31;;;12.53;100.00
54389;BME280;40975;50.390;8.640;2023-03-09T12:04:11;97335.94;;;12.48;100.00
54389;BME280;40975;50.390;8.640;2023-03-09T12:09:25;97339.22;;;12.63;100.00
54389;BME280;40975;50.390;8.640;2023-03-09T12:12:48;97334.31;;;13.41;100.00
54389;BME280;40975;50.390;8.640;2023-03-09T12:14:54;97320.53;;;13.50;100.00
54389;BME280;40975;50.390;8.640;2023-03-09T12:17:29;97315.22;;;13.44;100.00
54389;BME280;40975;50.390;8.640;2023-03-09T12:19:56;97321.81;;;13.21;100.00
54389;BME280;40975;50.390;8.640;2023-03-09T12:22:32;97322.88;;;12.73;100.00
54389;BME280;40975;50.390;8.640;2023-03-09T12:25:01;97326.75;;;12.90;100.00
54389;BME280;40975;50.390;8.640;2023-03-09T12:27:28;97332.28;;;12.75;100.00
54389;BME280;40975;50.390;8.640;2023-03-09T12:34:59;97325.50;;;12.39;100.00
54389;BME280;40975;50.390;8.640;2023-03-09T12:42:48;97330.81;;;12.33;100.00
54389;BME280;40975;50.390;8.640;2023-03-09T13:00:51;97316.69;;;11.70;100.00
54389;BME280;40975;50.390;8.640;2023-03-09T13:03:22;97318.47;;;11.63;100.00
54389;BME280;40975;50.390;8.640;2023-03-09T13:05:49;97311.75;;;11.67;100.00
54389;BME280;40975;50.390;8.640;2023-03-09T13:08:36;97318.47;;;11.63;100.00
54389;BME280;40975;50.390;8.640;2023-03-09T13:13:54;97326.78;;;11.46;100.00
54389;BME280;40975;50.390;8.640;2023-03-09T13:27:22;97339.88;;;11.96;100.00
54389;BME280;40975;50.390;8.640;2023-03-09T13:30:00;97330.56;;;12.21;100.00
54389;BME280;40975;50.390;8.640;2023-03-09T13:32:33;97334.06;;;12.28;100.00
54389;BME280;40975;50.390;8.640;2023-03-09T13:35:02;97327.75;;;12.49;100.00
54389;BME280;40975;50.390;8.640;2023-03-09T13:37:38;97319.56;;;12.64;100.00
54389;BME280;40975;50.390;8.640;2023-03-09T13:40:29;97332.84;;;12.37;100.00
54389;BME280;40975;50.390;8.640;2023-03-09T13:42:56;97327.91;;;12.14;100.00
54389;BME280;40975;50.390;8.640;2023-03-09T13:45:32;97332.94;;;11.95;100.00
54389;BME280;40975;50.390;8.640;2023-03-09T13:48:01;97337.78;;;11.85;100.00
54389;BME280;40975;50.390;8.640;2023-03-09T13:50:33;97316.13;;;11.88;100.00
54389;BME280;40975;50.390;8.640;2023-03-09T13:53:22;97313.91;;;11.92;100.00
54389;BME280;40975;50.390;8.640;2023-03-09T13:55:58;97311.13;;;12.07;100.00
54389;BME280;40975;50.390;8.640;2023-03-09T13:58:25;97301.94;;;12.36;100.00
54389;BME280;40975;50.390;8.640;2023-03-09T14:00:59;97311.81;;;12.63;100.00
54389;BME280;40975;50.390;8.640;2023-03-09T14:03:27;97303.00;;;12.42;100.00
54389;BME280;40975;50.390;8.640;2023-03-09T14:06:07;97299.06;;;12.38;100.00
54389;BME280;40975;50.390;8.640;2023-03-09T14:08:41;97308.09;;;12.50;100.00
54389;BME280;40975;50.390;8.640;2023-03-09T14:11:08;97315.22;;;12.23;100.00
54389;BME280;40975;50.390;8.640;2023-03-09T14:13:44;97314.00;;;12.19;100.00
54389;BME280;40975;50.390;8.640;2023-03-09T14:16:14;97324.16;;;12.02;100.00